Stellar Pacific — V2QR7 — position and weather

sailwx.info

Track history (hours):
 
Tides and Currents Weather Stations Pressure Air Temp Water Temp Dewpoint Dewpoint Depression Visibility Wind Speed Wind Dir Waves Ship Positions

Stellar Pacific

Last reported at 2017-Sep-22 01:59 UTC. Time now 2017-Sep-26 09:31 UTC.
Position N 36°34' E 014°15'.

Length 135 m; draft 8.3 m.

Type: Cargo ship. MMSI: 304918000.

Date/timePositionNaut miles runAvg speedWind from/ knotsBaromVisibWave heightAir tempDewpointWater temp
2017-Sep-22 01:59N 36°34' E 014°15'612.4
2017-Sep-22 01:29N 36°36' E 014°08'612.7
2017-Sep-22 01:00N 36°37' E 014°00'612.7
2017-Sep-22 00:30N 36°39' E 013°53'60212.1
2017-Sep-19 22:45N 36°48' E 001°22'31712.7
2017-Sep-18 21:44N 35°60' W 005°08'415.9
2017-Sep-18 21:30N 35°59' W 005°13'815.4
2017-Sep-18 21:00N 35°58' W 005°22'814.3
2017-Sep-18 20:28N 35°57' W 005°31'16612.4
2017-Sep-18 07:03N 36°29' W 008°53'512.4
2017-Sep-18 06:41N 36°30' W 008°58'212.5
2017-Sep-18 06:29N 36°31' W 009°01'812.7
2017-Sep-18 05:50N 36°33' W 009°11'1412.3
2017-Sep-18 04:40N 36°41' W 009°26'212.6
2017-Sep-18 04:30N 36°43' W 009°28'912.5
2017-Sep-18 03:45N 36°50' W 009°35'6712.0
2017-Sep-17 22:12N 37°55' W 009°54'311.9
2017-Sep-17 21:55N 37°58' W 009°54'912.1
2017-Sep-17 21:09N 38°07' W 009°57'312.3
2017-Sep-17 20:56N 38°10' W 009°58'612.2
2017-Sep-17 20:26N 38°16' W 009°60'512.4
2017-Sep-17 20:00N 38°21' W 010°01'612.7
2017-Sep-17 19:30N 38°27' W 010°03'813.0
2017-Sep-17 18:52N 38°35' W 010°05'512.9
2017-Sep-17 18:30N 38°40' W 010°07'812.7
2017-Sep-17 17:54N 38°47' W 010°07'512.5
2017-Sep-17 17:30N 38°52' W 010°07'612.5
2017-Sep-17 17:00N 38°58' W 010°07'612.8
2017-Sep-17 16:30N 39°05' W 010°07'712.7
2017-Sep-17 15:59N 39°11' W 010°07'  
2017-Sep-15 03:27N 49°38' W 003°54'510.7
2017-Sep-15 03:00N 49°40' W 003°47'510.5
2017-Sep-15 02:30N 49°43' W 003°40'510.4
2017-Sep-15 02:00N 49°45' W 003°33'510.1
2017-Sep-15 01:30N 49°48' W 003°26'510.1
2017-Sep-15 01:00N 49°50' W 003°20'510.1
2017-Sep-15 00:30N 49°53' W 003°13'510.2
2017-Sep-15 00:00N 49°55' W 003°06'510.5
2017-Sep-14 23:30N 49°58' W 002°59'510.8
2017-Sep-14 23:00N 50°00' W 002°51'611.1
2017-Sep-14 22:30N 50°02' W 002°43'3312.2
2017-Sep-14 19:45N 50°11' W 001°53'412.9
2017-Sep-14 19:29N 50°12' W 001°48'612.6
2017-Sep-14 19:00N 50°14' W 001°39'612.0
2017-Sep-14 18:30N 50°16' W 001°30'43 9.2
2017-Sep-14 13:48N 50°28' W 000°24'3 8.7
2017-Sep-14 13:30N 50°29' W 000°21'5 9.1
2017-Sep-14 13:00N 50°30' W 000°14'5 9.5
2017-Sep-14 12:30N 50°31' W 000°06'5 9.9
2017-Sep-14 12:00N 50°33' E 000°01'510.4
2017-Sep-14 11:30N 50°34' E 000°09'510.7
2017-Sep-14 11:00N 50°36' E 000°17'611.1
2017-Sep-14 10:30N 50°37' E 000°25'611.5
2017-Sep-14 10:00N 50°39' E 000°34'611.6
2017-Sep-14 09:30N 50°42' E 000°42'611.5
2017-Sep-14 09:00N 50°45' E 000°50'711.2
2017-Sep-14 08:21N 50°49' E 000°59'411.0
2017-Sep-14 07:57N 50°52' E 001°04'510.7
2017-Sep-14 07:29N 50°55' E 001°10'510.2
2017-Sep-14 06:59N 50°58' E 001°17'6 9.6
2017-Sep-14 06:22N 51°02' E 001°24'3 9.4
2017-Sep-14 06:00N 51°04' E 001°28'5 9.4
2017-Sep-14 05:30N 51°07' E 001°34'5 9.6
2017-Sep-14 05:00N 51°10' E 001°40'5 9.9
2017-Sep-14 04:30N 51°14' E 001°46'510.5
2017-Sep-14 04:00N 51°18' E 001°51'611.1
2017-Sep-14 03:30N 51°22' E 001°57'4 8.4
2017-Sep-14 03:00N 51°23' E 002°03'510.8
2017-Sep-14 02:30N 51°21' E 002°11'611.1
2017-Sep-14 02:00N 51°21' E 002°20'612.0
2017-Sep-14 01:30N 51°23' E 002°29'611.2
2017-Sep-14 01:00N 51°23' E 002°38'5 9.8
2017-Sep-14 00:30N 51°22' E 002°46'5 9.1
2017-Sep-14 00:00N 51°23' E 002°53'5 9.5
2017-Sep-13 23:30N 51°24' E 003°00'5 9.3
2017-Sep-13 23:00N 51°24' E 003°08'5 9.9
2017-Sep-13 22:30N 51°25' E 003°15'510.6
2017-Sep-13 22:00N 51°25' E 003°24'510.8
2017-Sep-13 21:30N 51°26' E 003°32'4 7.3
2017-Sep-13 21:00N 51°26' E 003°38'5 9.5
2017-Sep-13 20:30N 51°23' E 003°43'510.7
2017-Sep-13 20:00N 51°21' E 003°51'5 9.6
2017-Sep-13 19:30N 51°24' E 003°57'3 6.5
2017-Sep-13 19:00N 51°26' E 004°02'4 7.7
2017-Sep-13 18:30N 51°22' E 004°05'4 7.8
2017-Sep-13 18:00N 51°24' E 004°11'3 6.7
2017-Sep-13 17:30N 51°21' E 004°14'2 3.5
2017-Sep-13 17:00N 51°21' E 004°17'0 0.0
2017-Sep-13 16:30N 51°21' E 004°17'1 1.0
2017-Sep-13 16:00N 51°21' E 004°18'1 2.6
2017-Sep-13 15:30N 51°19' E 004°19'3 5.8
2017-Sep-13 15:00N 51°17' E 004°21'2 4.8
2017-Sep-13 14:31N 51°15' E 004°22'0 0.0
2017-Sep-13 14:00N 51°15' E 004°22'0 0.0
2017-Sep-13 13:30N 51°15' E 004°22'0 0.0
2017-Sep-13 13:00N 51°15' E 004°22'0 0.0
2017-Sep-13 12:30N 51°15' E 004°22'0 0.0
2017-Sep-13 12:00N 51°15' E 004°22'0 0.0
2017-Sep-13 11:30N 51°15' E 004°22'0 0.0
2017-Sep-13 10:57N 51°15' E 004°22'0 0.0
2017-Sep-13 10:30N 51°15' E 004°22'0 0.0
2017-Sep-13 10:00N 51°15' E 004°22'0 0.0
2017-Sep-13 09:30N 51°15' E 004°22'0 0.0
2017-Sep-13 09:00N 51°15' E 004°22'0 0.0
2017-Sep-13 08:30N 51°15' E 004°22'0 0.0
2017-Sep-13 08:00N 51°15' E 004°22'0 0.0
2017-Sep-13 07:30N 51°15' E 004°22'0 0.0
2017-Sep-13 07:00N 51°15' E 004°22'0 0.0
2017-Sep-13 06:30N 51°15' E 004°22'0 0.0
2017-Sep-13 06:00N 51°15' E 004°22'0 0.0
2017-Sep-13 05:30N 51°15' E 004°22'0 0.0
2017-Sep-13 05:00N 51°15' E 004°22'0 0.0
2017-Sep-13 04:30N 51°15' E 004°22'0 0.0
2017-Sep-13 04:00N 51°15' E 004°22'0 0.0
2017-Sep-13 03:30N 51°15' E 004°22'0 0.0
2017-Sep-13 03:00N 51°15' E 004°22'0 0.0
2017-Sep-13 02:30N 51°15' E 004°22'0 0.0
2017-Sep-13 02:00N 51°15' E 004°22'0 0.0
2017-Sep-13 01:30N 51°15' E 004°22'0 0.0
2017-Sep-13 01:00N 51°15' E 004°22'0 0.0
2017-Sep-13 00:30N 51°15' E 004°22'0 0.0
2017-Sep-13 00:00N 51°15' E 004°22'0 0.0
2017-Sep-12 23:30N 51°15' E 004°22'0 0.0
2017-Sep-12 23:00N 51°15' E 004°22'0 0.0
2017-Sep-12 22:30N 51°15' E 004°22'0 0.0
2017-Sep-12 22:00N 51°15' E 004°22'0 0.0
2017-Sep-12 21:30N 51°15' E 004°22'0 0.0
2017-Sep-12 21:00N 51°15' E 004°22'0 0.0
2017-Sep-12 20:30N 51°15' E 004°22'0 0.0
2017-Sep-12 20:00N 51°15' E 004°22'0 0.0
2017-Sep-12 19:30N 51°15' E 004°22'0 0.0
2017-Sep-12 19:00N 51°15' E 004°22'0 0.0
2017-Sep-12 18:30N 51°15' E 004°22'0 0.0
2017-Sep-12 18:00N 51°15' E 004°22'0 0.0
2017-Sep-12 17:27N 51°15' E 004°22'0 0.0
2017-Sep-12 17:00N 51°15' E 004°22'0 0.0
2017-Sep-12 16:30N 51°15' E 004°22'0 0.0
2017-Sep-12 16:00N 51°15' E 004°22'0 0.0
2017-Sep-12 15:30N 51°15' E 004°22'0 0.0
2017-Sep-12 15:00N 51°15' E 004°22'0 0.0
2017-Sep-12 14:30N 51°15' E 004°22'0 0.0
2017-Sep-12 14:00N 51°15' E 004°22'0 0.0
2017-Sep-12 13:30N 51°15' E 004°22'0 0.0
2017-Sep-12 13:00N 51°15' E 004°22'0 0.0
2017-Sep-12 12:30N 51°15' E 004°22'0 0.0
2017-Sep-12 12:00N 51°15' E 004°22'0 0.0
2017-Sep-12 11:30N 51°15' E 004°22'0 0.0
2017-Sep-12 11:00N 51°15' E 004°22'0 0.0
2017-Sep-12 10:30N 51°15' E 004°22'0 0.0
2017-Sep-12 10:00N 51°15' E 004°22'0 0.0
2017-Sep-12 09:30N 51°15' E 004°22'0 0.0
2017-Sep-12 09:00N 51°15' E 004°22'0 0.0
2017-Sep-12 08:30N 51°15' E 004°22'0 0.0
2017-Sep-12 08:00N 51°15' E 004°22'0 0.0
2017-Sep-12 07:30N 51°15' E 004°22'0 0.0
2017-Sep-12 07:00N 51°15' E 004°22'0 0.0
2017-Sep-12 06:30N 51°15' E 004°22'0 0.0
2017-Sep-12 06:00N 51°15' E 004°22'0 0.0
2017-Sep-12 05:30N 51°15' E 004°22'0 0.0
2017-Sep-12 05:00N 51°15' E 004°22'0 0.0
2017-Sep-12 04:30N 51°15' E 004°22'0 0.0
2017-Sep-12 04:00N 51°15' E 004°22'0 0.0
2017-Sep-12 03:30N 51°15' E 004°22'0 0.0
2017-Sep-12 03:00N 51°15' E 004°22'0 0.0
2017-Sep-12 02:30N 51°15' E 004°22'0 0.0
2017-Sep-12 02:00N 51°15' E 004°22'  
Track history (hours):
 
Tides and Currents Weather Stations Pressure Air Temp Water Temp Dewpoint Dewpoint Depression Visibility Wind Speed Wind Dir Waves Ship Positions

Stellar Pacific

Last reported at 2017-Sep-22 01:59 UTC. Time now 2017-Sep-26 09:31 UTC.
Position N 36°34' E 014°15'.

Length 135 m; draft 8.3 m.

Type: Cargo ship. MMSI: 304918000.

Date/timePositionNaut miles runAvg speedWind from/ knotsBaromVisibWave heightAir tempDewpointWater temp
2017-Sep-22 01:59N 36°34' E 014°15'612.4
2017-Sep-22 01:29N 36°36' E 014°08'612.7
2017-Sep-22 01:00N 36°37' E 014°00'612.7
2017-Sep-22 00:30N 36°39' E 013°53'60212.1
2017-Sep-19 22:45N 36°48' E 001°22'31712.7
2017-Sep-18 21:44N 35°60' W 005°08'415.9
2017-Sep-18 21:30N 35°59' W 005°13'815.4
2017-Sep-18 21:00N 35°58' W 005°22'814.3
2017-Sep-18 20:28N 35°57' W 005°31'16612.4
2017-Sep-18 07:03N 36°29' W 008°53'512.4
2017-Sep-18 06:41N 36°30' W 008°58'212.5
2017-Sep-18 06:29N 36°31' W 009°01'812.7
2017-Sep-18 05:50N 36°33' W 009°11'1412.3
2017-Sep-18 04:40N 36°41' W 009°26'212.6
2017-Sep-18 04:30N 36°43' W 009°28'912.5
2017-Sep-18 03:45N 36°50' W 009°35'6712.0
2017-Sep-17 22:12N 37°55' W 009°54'311.9
2017-Sep-17 21:55N 37°58' W 009°54'912.1
2017-Sep-17 21:09N 38°07' W 009°57'312.3
2017-Sep-17 20:56N 38°10' W 009°58'612.2
2017-Sep-17 20:26N 38°16' W 009°60'512.4
2017-Sep-17 20:00N 38°21' W 010°01'612.7
2017-Sep-17 19:30N 38°27' W 010°03'813.0
2017-Sep-17 18:52N 38°35' W 010°05'512.9
2017-Sep-17 18:30N 38°40' W 010°07'812.7
2017-Sep-17 17:54N 38°47' W 010°07'512.5
2017-Sep-17 17:30N 38°52' W 010°07'612.5
2017-Sep-17 17:00N 38°58' W 010°07'612.8
2017-Sep-17 16:30N 39°05' W 010°07'712.7
2017-Sep-17 15:59N 39°11' W 010°07'  
2017-Sep-15 03:27N 49°38' W 003°54'510.7
2017-Sep-15 03:00N 49°40' W 003°47'510.5
2017-Sep-15 02:30N 49°43' W 003°40'510.4
2017-Sep-15 02:00N 49°45' W 003°33'510.1
2017-Sep-15 01:30N 49°48' W 003°26'510.1
2017-Sep-15 01:00N 49°50' W 003°20'510.1
2017-Sep-15 00:30N 49°53' W 003°13'510.2
2017-Sep-15 00:00N 49°55' W 003°06'510.5
2017-Sep-14 23:30N 49°58' W 002°59'510.8
2017-Sep-14 23:00N 50°00' W 002°51'611.1
2017-Sep-14 22:30N 50°02' W 002°43'3312.2
2017-Sep-14 19:45N 50°11' W 001°53'412.9
2017-Sep-14 19:29N 50°12' W 001°48'612.6
2017-Sep-14 19:00N 50°14' W 001°39'612.0
2017-Sep-14 18:30N 50°16' W 001°30'43 9.2
2017-Sep-14 13:48N 50°28' W 000°24'3 8.7
2017-Sep-14 13:30N 50°29' W 000°21'5 9.1
2017-Sep-14 13:00N 50°30' W 000°14'5 9.5
2017-Sep-14 12:30N 50°31' W 000°06'5 9.9
2017-Sep-14 12:00N 50°33' E 000°01'510.4
2017-Sep-14 11:30N 50°34' E 000°09'510.7
2017-Sep-14 11:00N 50°36' E 000°17'611.1
2017-Sep-14 10:30N 50°37' E 000°25'611.5
2017-Sep-14 10:00N 50°39' E 000°34'611.6
2017-Sep-14 09:30N 50°42' E 000°42'611.5
2017-Sep-14 09:00N 50°45' E 000°50'711.2
2017-Sep-14 08:21N 50°49' E 000°59'411.0
2017-Sep-14 07:57N 50°52' E 001°04'510.7
2017-Sep-14 07:29N 50°55' E 001°10'510.2
2017-Sep-14 06:59N 50°58' E 001°17'6 9.6
2017-Sep-14 06:22N 51°02' E 001°24'3 9.4
2017-Sep-14 06:00N 51°04' E 001°28'5 9.4
2017-Sep-14 05:30N 51°07' E 001°34'5 9.6
2017-Sep-14 05:00N 51°10' E 001°40'5 9.9
2017-Sep-14 04:30N 51°14' E 001°46'510.5
2017-Sep-14 04:00N 51°18' E 001°51'611.1
2017-Sep-14 03:30N 51°22' E 001°57'4 8.4
2017-Sep-14 03:00N 51°23' E 002°03'510.8
2017-Sep-14 02:30N 51°21' E 002°11'611.1
2017-Sep-14 02:00N 51°21' E 002°20'612.0
2017-Sep-14 01:30N 51°23' E 002°29'611.2
2017-Sep-14 01:00N 51°23' E 002°38'5 9.8
2017-Sep-14 00:30N 51°22' E 002°46'5 9.1
2017-Sep-14 00:00N 51°23' E 002°53'5 9.5
2017-Sep-13 23:30N 51°24' E 003°00'5 9.3
2017-Sep-13 23:00N 51°24' E 003°08'5 9.9
2017-Sep-13 22:30N 51°25' E 003°15'510.6
2017-Sep-13 22:00N 51°25' E 003°24'510.8
2017-Sep-13 21:30N 51°26' E 003°32'4 7.3
2017-Sep-13 21:00N 51°26' E 003°38'5 9.5
2017-Sep-13 20:30N 51°23' E 003°43'510.7
2017-Sep-13 20:00N 51°21' E 003°51'5 9.6
2017-Sep-13 19:30N 51°24' E 003°57'3 6.5
2017-Sep-13 19:00N 51°26' E 004°02'4 7.7
2017-Sep-13 18:30N 51°22' E 004°05'4 7.8
2017-Sep-13 18:00N 51°24' E 004°11'3 6.7
2017-Sep-13 17:30N 51°21' E 004°14'2 3.5
2017-Sep-13 17:00N 51°21' E 004°17'0 0.0
2017-Sep-13 16:30N 51°21' E 004°17'1 1.0
2017-Sep-13 16:00N 51°21' E 004°18'1 2.6
2017-Sep-13 15:30N 51°19' E 004°19'3 5.8
2017-Sep-13 15:00N 51°17' E 004°21'2 4.8
2017-Sep-13 14:31N 51°15' E 004°22'0 0.0
2017-Sep-13 14:00N 51°15' E 004°22'0 0.0
2017-Sep-13 13:30N 51°15' E 004°22'0 0.0
2017-Sep-13 13:00N 51°15' E 004°22'0 0.0
2017-Sep-13 12:30N 51°15' E 004°22'0 0.0
2017-Sep-13 12:00N 51°15' E 004°22'0 0.0
2017-Sep-13 11:30N 51°15' E 004°22'0 0.0
2017-Sep-13 10:57N 51°15' E 004°22'0 0.0
2017-Sep-13 10:30N 51°15' E 004°22'0 0.0
2017-Sep-13 10:00N 51°15' E 004°22'0 0.0
2017-Sep-13 09:30N 51°15' E 004°22'0 0.0
2017-Sep-13 09:00N 51°15' E 004°22'0 0.0
2017-Sep-13 08:30N 51°15' E 004°22'0 0.0
2017-Sep-13 08:00N 51°15' E 004°22'0 0.0
2017-Sep-13 07:30N 51°15' E 004°22'0 0.0
2017-Sep-13 07:00N 51°15' E 004°22'0 0.0
2017-Sep-13 06:30N 51°15' E 004°22'0 0.0
2017-Sep-13 06:00N 51°15' E 004°22'0 0.0
2017-Sep-13 05:30N 51°15' E 004°22'0 0.0
2017-Sep-13 05:00N 51°15' E 004°22'0 0.0
2017-Sep-13 04:30N 51°15' E 004°22'0 0.0
2017-Sep-13 04:00N 51°15' E 004°22'0 0.0
2017-Sep-13 03:30N 51°15' E 004°22'0 0.0
2017-Sep-13 03:00N 51°15' E 004°22'0 0.0
2017-Sep-13 02:30N 51°15' E 004°22'0 0.0
2017-Sep-13 02:00N 51°15' E 004°22'0 0.0
2017-Sep-13 01:30N 51°15' E 004°22'0 0.0
2017-Sep-13 01:00N 51°15' E 004°22'0 0.0
2017-Sep-13 00:30N 51°15' E 004°22'0 0.0
2017-Sep-13 00:00N 51°15' E 004°22'0 0.0
2017-Sep-12 23:30N 51°15' E 004°22'0 0.0
2017-Sep-12 23:00N 51°15' E 004°22'0 0.0
2017-Sep-12 22:30N 51°15' E 004°22'0 0.0
2017-Sep-12 22:00N 51°15' E 004°22'0 0.0
2017-Sep-12 21:30N 51°15' E 004°22'0 0.0
2017-Sep-12 21:00N 51°15' E 004°22'0 0.0
2017-Sep-12 20:30N 51°15' E 004°22'0 0.0
2017-Sep-12 20:00N 51°15' E 004°22'0 0.0
2017-Sep-12 19:30N 51°15' E 004°22'0 0.0
2017-Sep-12 19:00N 51°15' E 004°22'0 0.0
2017-Sep-12 18:30N 51°15' E 004°22'0 0.0
2017-Sep-12 18:00N 51°15' E 004°22'0 0.0
2017-Sep-12 17:27N 51°15' E 004°22'0 0.0
2017-Sep-12 17:00N 51°15' E 004°22'0 0.0
2017-Sep-12 16:30N 51°15' E 004°22'0 0.0
2017-Sep-12 16:00N 51°15' E 004°22'0 0.0
2017-Sep-12 15:30N 51°15' E 004°22'0 0.0
2017-Sep-12 15:00N 51°15' E 004°22'0 0.0
2017-Sep-12 14:30N 51°15' E 004°22'0 0.0
2017-Sep-12 14:00N 51°15' E 004°22'0 0.0
2017-Sep-12 13:30N 51°15' E 004°22'0 0.0
2017-Sep-12 13:00N 51°15' E 004°22'0 0.0
2017-Sep-12 12:30N 51°15' E 004°22'0 0.0
2017-Sep-12 12:00N 51°15' E 004°22'0 0.0
2017-Sep-12 11:30N 51°15' E 004°22'0 0.0
2017-Sep-12 11:00N 51°15' E 004°22'0 0.0
2017-Sep-12 10:30N 51°15' E 004°22'0 0.0
2017-Sep-12 10:00N 51°15' E 004°22'0 0.0
2017-Sep-12 09:30N 51°15' E 004°22'0 0.0
2017-Sep-12 09:00N 51°15' E 004°22'0 0.0
2017-Sep-12 08:30N 51°15' E 004°22'0 0.0
2017-Sep-12 08:00N 51°15' E 004°22'0 0.0
2017-Sep-12 07:30N 51°15' E 004°22'0 0.0
2017-Sep-12 07:00N 51°15' E 004°22'0 0.0
2017-Sep-12 06:30N 51°15' E 004°22'0 0.0
2017-Sep-12 06:00N 51°15' E 004°22'0 0.0
2017-Sep-12 05:30N 51°15' E 004°22'0 0.0
2017-Sep-12 05:00N 51°15' E 004°22'0 0.0
2017-Sep-12 04:30N 51°15' E 004°22'0 0.0
2017-Sep-12 04:00N 51°15' E 004°22'0 0.0
2017-Sep-12 03:30N 51°15' E 004°22'0 0.0
2017-Sep-12 03:00N 51°15' E 004°22'0 0.0
2017-Sep-12 02:30N 51°15' E 004°22'0 0.0
2017-Sep-12 02:00N 51°15' E 004°22'  

Dump ship's entire track history